Catskill, New York
Current Conditions -  °F | °C
As of 11:22 PM on Saturday 22 Nov 2014 (Local Time) from KPSF Reporting Station
Light Rain Light Rain  
Wind Chill: 27°   Ceiling: 2800
Heat Index: 33°   Visibility: 6mi
Dew Point: 28°   Wind: 7mph
Humidity: 82%   Direction: 280°W
Pressure: 30.07"   Gusts: NA
Location:  42.22°N, 73.86°W
Report Text: KPSF 230422Z AUTO 28006KT 6SM -RA BKN028 OVC037 01/M02 A3007 RMK AO2 UPB16E18 P0002 T00061022 $
Loading
Personal Weather Stations






























Interactive Weather Map New forecast layout! Learn more

10-Day Weather Forecast

Advertisements
Track Severe Weather on mobile